createdAt,value
2023-04-28T00:00:26.521Z,1005.049
2023-04-28T00:00:56.530Z,1005.049
2023-04-28T00:01:26.534Z,1005.052
2023-04-28T00:01:56.528Z,1005.057
2023-04-28T00:02:26.575Z,1005.06
2023-04-28T00:02:56.647Z,1005.061
2023-04-28T00:03:26.608Z,1005.067
2023-04-28T00:03:56.614Z,1005.073
2023-04-28T00:04:26.690Z,1005.084
2023-04-28T00:04:56.712Z,1005.092
2023-04-28T00:05:26.559Z,1005.093
2023-04-28T00:05:56.635Z,1005.088
2023-04-28T00:06:26.546Z,1005.093
2023-04-28T00:06:56.536Z,1005.094
2023-04-28T00:07:26.535Z,1005.094
2023-04-28T00:07:56.538Z,1005.105
2023-04-28T00:08:26.537Z,1005.105
2023-04-28T00:08:56.534Z,1005.103
2023-04-28T00:09:26.535Z,1005.102
2023-04-28T00:09:56.534Z,1005.097
2023-04-28T00:10:26.530Z,1005.094
2023-04-28T00:10:56.533Z,1005.098
2023-04-28T00:11:26.539Z,1005.094
2023-04-28T00:11:56.533Z,1005.094
2023-04-28T00:12:26.529Z,1005.099
2023-04-28T00:12:56.538Z,1005.099
2023-04-28T00:13:26.539Z,1005.092
2023-04-28T00:13:56.543Z,1005.091
2023-04-28T00:14:26.563Z,1005.086
2023-04-28T00:14:56.532Z,1005.085
2023-04-28T00:15:26.549Z,1005.085
2023-04-28T00:15:56.545Z,1005.09
2023-04-28T00:16:26.557Z,1005.1
2023-04-28T00:16:56.613Z,1005.102
2023-04-28T00:17:26.619Z,1005.109
2023-04-28T00:17:56.623Z,1005.115
2023-04-28T00:18:26.581Z,1005.114
2023-04-28T00:18:56.556Z,1005.118
2023-04-28T00:19:26.529Z,1005.127
2023-04-28T00:19:56.552Z,1005.128
2023-04-28T00:20:26.533Z,1005.126
2023-04-28T00:20:56.531Z,1005.122
2023-04-28T00:21:26.534Z,1005.121
2023-04-28T00:21:56.531Z,1005.117
2023-04-28T00:22:26.531Z,1005.114
2023-04-28T00:22:56.528Z,1005.117
2023-04-28T00:23:26.560Z,1005.107
2023-04-28T00:23:56.555Z,1005.101
2023-04-28T00:24:26.535Z,1005.111
2023-04-28T00:24:56.530Z,1005.107
2023-04-28T00:25:26.543Z,1005.104
2023-04-28T00:25:56.545Z,1005.106
2023-04-28T00:26:26.530Z,1005.105
2023-04-28T00:26:56.533Z,1005.097
2023-04-28T00:27:26.535Z,1005.097
2023-04-28T00:27:56.561Z,1005.098
2023-04-28T00:28:34.221Z,1005.095
2023-04-28T00:28:57.351Z,1005.106
2023-04-28T00:29:26.537Z,1005.109
2023-04-28T00:29:56.537Z,1005.116
2023-04-28T00:30:26.558Z,1005.118
2023-04-28T00:30:56.529Z,1005.124
2023-04-28T00:31:26.583Z,1005.118
2023-04-28T00:31:56.679Z,1005.119
2023-04-28T00:32:26.605Z,1005.123
2023-04-28T00:32:56.548Z,1005.129
2023-04-28T00:33:26.535Z,1005.135
2023-04-28T00:33:56.541Z,1005.144
2023-04-28T00:34:26.551Z,1005.14
2023-04-28T00:34:56.533Z,1005.152
2023-04-28T00:35:26.541Z,1005.143
2023-04-28T00:35:56.532Z,1005.145
2023-04-28T00:36:26.535Z,1005.148
2023-04-28T00:36:56.537Z,1005.158
2023-04-28T00:37:26.533Z,1005.16
2023-04-28T00:37:56.535Z,1005.17
2023-04-28T00:38:26.545Z,1005.175
2023-04-28T00:38:56.536Z,1005.177
2023-04-28T00:39:26.534Z,1005.181
2023-04-28T00:39:56.537Z,1005.175
2023-04-28T00:40:26.539Z,1005.172
2023-04-28T00:40:56.540Z,1005.166
2023-04-28T00:41:26.533Z,1005.169
2023-04-28T00:41:56.546Z,1005.169
2023-04-28T00:42:26.533Z,1005.161
2023-04-28T00:42:56.539Z,1005.167
2023-04-28T00:43:26.562Z,1005.176
2023-04-28T00:43:56.534Z,1005.179
2023-04-28T00:44:26.544Z,1005.183
2023-04-28T00:44:56.535Z,1005.186
2023-04-28T00:45:26.575Z,1005.184
2023-04-28T00:45:56.614Z,1005.189
2023-04-28T00:46:26.553Z,1005.185
2023-04-28T00:46:56.541Z,1005.189
2023-04-28T00:47:26.560Z,1005.196
2023-04-28T00:47:56.582Z,1005.202
2023-04-28T00:48:26.535Z,1005.211
2023-04-28T00:48:56.532Z,1005.222
2023-04-28T00:49:26.549Z,1005.236
2023-04-28T00:49:56.550Z,1005.236
2023-04-28T00:50:26.536Z,1005.239
2023-04-28T00:50:56.538Z,1005.245
2023-04-28T00:51:26.542Z,1005.24
2023-04-28T00:51:56.536Z,1005.236
2023-04-28T00:52:26.545Z,1005.241
2023-04-28T00:52:56.561Z,1005.251
2023-04-28T00:53:26.542Z,1005.256
2023-04-28T00:53:56.544Z,1005.257
2023-04-28T00:54:26.551Z,1005.259
2023-04-28T00:54:56.535Z,1005.265
2023-04-28T00:55:26.543Z,1005.265
2023-04-28T00:55:56.544Z,1005.269
2023-04-28T00:56:26.537Z,1005.265
2023-04-28T00:56:56.537Z,1005.261
2023-04-28T00:57:26.535Z,1005.265
2023-04-28T00:57:56.543Z,1005.269
2023-04-28T00:58:26.566Z,1005.264
2023-04-28T00:58:56.540Z,1005.26
2023-04-28T00:59:26.547Z,1005.258
2023-04-28T00:59:56.545Z,1005.251
2023-04-28T01:00:26.545Z,1005.251
2023-04-28T01:00:56.566Z,1005.252
2023-04-28T01:01:26.593Z,1005.251
2023-04-28T01:01:56.549Z,1005.255
2023-04-28T01:02:26.808Z,1005.257
2023-04-28T01:02:56.649Z,1005.264
2023-04-28T01:03:26.854Z,1005.266
2023-04-28T01:03:56.845Z,1005.266
2023-04-28T01:04:26.743Z,1005.265
2023-04-28T01:04:56.563Z,1005.269
2023-04-28T01:05:26.544Z,1005.273
2023-04-28T01:05:56.539Z,1005.273
2023-04-28T01:06:26.546Z,1005.274
2023-04-28T01:06:56.547Z,1005.283
2023-04-28T01:07:26.548Z,1005.288
2023-04-28T01:07:56.540Z,1005.294
2023-04-28T01:08:26.545Z,1005.292
2023-04-28T01:08:56.548Z,1005.297
2023-04-28T01:09:26.552Z,1005.297
2023-04-28T01:09:56.551Z,1005.303
2023-04-28T01:10:26.542Z,1005.307
2023-04-28T01:10:56.543Z,1005.304
2023-04-28T01:11:26.546Z,1005.306
2023-04-28T01:11:56.548Z,1005.307
2023-04-28T01:12:26.547Z,1005.315
2023-04-28T01:12:56.554Z,1005.32
2023-04-28T01:13:26.559Z,1005.329
2023-04-28T01:13:56.543Z,1005.341
2023-04-28T01:14:26.544Z,1005.352
2023-04-28T01:14:56.542Z,1005.357
2023-04-28T01:15:26.542Z,1005.37
2023-04-28T01:15:56.561Z,1005.376
2023-04-28T01:16:26.579Z,1005.386
2023-04-28T01:16:56.579Z,1005.402
2023-04-28T01:17:26.586Z,1005.405
2023-04-28T01:17:56.582Z,1005.419
2023-04-28T01:18:26.579Z,1005.419
2023-04-28T01:18:56.540Z,1005.401
2023-04-28T01:19:26.544Z,1005.407
2023-04-28T01:19:56.543Z,1005.415
2023-04-28T01:20:26.547Z,1005.426
2023-04-28T01:20:56.552Z,1005.429
2023-04-28T01:21:26.548Z,1005.425
2023-04-28T01:21:56.545Z,1005.417
2023-04-28T01:22:26.555Z,1005.416
2023-04-28T01:22:56.576Z,1005.413
2023-04-28T01:23:26.554Z,1005.411
2023-04-28T01:23:56.544Z,1005.41
2023-04-28T01:24:26.550Z,1005.403
2023-04-28T01:24:56.543Z,1005.409
2023-04-28T01:25:26.544Z,1005.409
2023-04-28T01:25:56.548Z,1005.417
2023-04-28T01:26:26.546Z,1005.42
2023-04-28T01:26:56.549Z,1005.419
2023-04-28T01:27:26.550Z,1005.419
2023-04-28T01:27:56.545Z,1005.422
2023-04-28T01:28:26.547Z,1005.427
2023-04-28T01:28:56.549Z,1005.432
2023-04-28T01:29:26.549Z,1005.439
2023-04-28T01:29:56.546Z,1005.444
2023-04-28T01:30:26.554Z,1005.435
2023-04-28T01:30:56.556Z,1005.428
2023-04-28T01:31:26.603Z,1005.433
2023-04-28T01:31:56.585Z,1005.437
2023-04-28T01:32:26.702Z,1005.446
2023-04-28T01:32:56.591Z,1005.446
2023-04-28T01:33:26.562Z,1005.461
2023-04-28T01:33:56.587Z,1005.465
2023-04-28T01:34:26.554Z,1005.468
2023-04-28T01:34:56.578Z,1005.464
2023-04-28T01:35:26.552Z,1005.46
2023-04-28T01:35:56.548Z,1005.452
2023-04-28T01:36:26.551Z,1005.452
2023-04-28T01:36:56.560Z,1005.458
2023-04-28T01:37:26.547Z,1005.461
2023-04-28T01:37:56.555Z,1005.465
2023-04-28T01:38:26.587Z,1005.465
2023-04-28T01:38:56.545Z,1005.466
2023-04-28T01:39:26.550Z,1005.463
2023-04-28T01:39:56.550Z,1005.459
2023-04-28T01:40:26.553Z,1005.459
2023-04-28T01:40:56.560Z,1005.459
2023-04-28T01:41:26.560Z,1005.461
2023-04-28T01:41:56.548Z,1005.477
2023-04-28T01:42:26.550Z,1005.474
2023-04-28T01:42:56.546Z,1005.485
2023-04-28T01:43:26.558Z,1005.48
2023-04-28T01:43:56.550Z,1005.481
2023-04-28T01:44:26.550Z,1005.49
2023-04-28T01:44:56.549Z,1005.492
2023-04-28T01:45:26.549Z,1005.488
2023-04-28T01:45:56.614Z,1005.493
2023-04-28T01:46:26.624Z,1005.501
2023-04-28T01:46:56.550Z,1005.508
2023-04-28T01:47:26.573Z,1005.514
2023-04-28T01:47:56.624Z,1005.517
2023-04-28T01:48:26.586Z,1005.509
2023-04-28T01:48:56.548Z,1005.506
2023-04-28T01:49:26.559Z,1005.495
2023-04-28T01:49:56.553Z,1005.492
2023-04-28T01:50:26.568Z,1005.49
2023-04-28T01:50:56.553Z,1005.497
2023-04-28T01:51:26.550Z,1005.502
2023-04-28T01:51:56.553Z,1005.515
2023-04-28T01:52:26.555Z,1005.512
2023-04-28T01:52:56.557Z,1005.514
2023-04-28T01:53:26.564Z,1005.514
2023-04-28T01:53:56.552Z,1005.521
2023-04-28T01:54:26.568Z,1005.527
2023-04-28T01:54:56.596Z,1005.523
2023-04-28T01:55:26.571Z,1005.527
2023-04-28T01:55:56.558Z,1005.529
2023-04-28T01:56:26.555Z,1005.523
2023-04-28T01:56:56.551Z,1005.525
2023-04-28T01:57:26.552Z,1005.532
2023-04-28T01:57:56.553Z,1005.535
2023-04-28T01:58:26.582Z,1005.547
2023-04-28T01:58:56.553Z,1005.55
2023-04-28T01:59:26.562Z,1005.558
2023-04-28T01:59:56.556Z,1005.564
2023-04-28T02:00:26.569Z,1005.57
2023-04-28T02:00:56.559Z,1005.579
2023-04-28T02:01:26.591Z,1005.583
2023-04-28T02:01:56.762Z,1005.588
2023-04-28T02:02:26.602Z,1005.588
2023-04-28T02:02:56.665Z,1005.591
2023-04-28T02:03:26.773Z,1005.601
2023-04-28T02:03:57.019Z,1005.607
2023-04-28T02:04:26.659Z,1005.607
2023-04-28T02:04:56.587Z,1005.617
2023-04-28T02:05:26.556Z,1005.621
2023-04-28T02:05:56.555Z,1005.625
2023-04-28T02:06:26.558Z,1005.643
2023-04-28T02:06:56.556Z,1005.664
2023-04-28T02:07:26.561Z,1005.672
2023-04-28T02:07:56.562Z,1005.671
2023-04-28T02:08:26.563Z,1005.68
2023-04-28T02:08:56.554Z,1005.695
2023-04-28T02:09:26.552Z,1005.707
2023-04-28T02:09:56.565Z,1005.721
2023-04-28T02:10:26.568Z,1005.734
2023-04-28T02:10:56.556Z,1005.752
2023-04-28T02:11:26.561Z,1005.763
2023-04-28T02:11:56.563Z,1005.761
2023-04-28T02:12:26.567Z,1005.745
2023-04-28T02:12:56.575Z,1005.736
2023-04-28T02:13:26.597Z,1005.731
2023-04-28T02:13:56.554Z,1005.735
2023-04-28T02:14:26.554Z,1005.729
2023-04-28T02:14:56.557Z,1005.738
2023-04-28T02:15:26.575Z,1005.739
2023-04-28T02:15:56.612Z,1005.742
2023-04-28T02:16:26.642Z,1005.747
2023-04-28T02:16:56.557Z,1005.758
2023-04-28T02:17:26.604Z,1005.763
2023-04-28T02:17:56.634Z,1005.763
2023-04-28T02:18:26.575Z,1005.761
2023-04-28T02:18:56.576Z,1005.767
2023-04-28T02:19:26.571Z,1005.773
2023-04-28T02:19:56.553Z,1005.771
2023-04-28T02:20:26.570Z,1005.768
2023-04-28T02:20:56.557Z,1005.777
2023-04-28T02:21:26.568Z,1005.784
2023-04-28T02:21:56.555Z,1005.786
2023-04-28T02:22:26.564Z,1005.795
2023-04-28T02:22:56.562Z,1005.81
2023-04-28T02:23:26.573Z,1005.818
2023-04-28T02:23:56.557Z,1005.828
2023-04-28T02:24:26.558Z,1005.834
2023-04-28T02:24:56.560Z,1005.837
2023-04-28T02:25:26.559Z,1005.845
2023-04-28T02:25:56.558Z,1005.841
2023-04-28T02:26:26.563Z,1005.848
2023-04-28T02:26:56.560Z,1005.854
2023-04-28T02:27:26.579Z,1005.857
2023-04-28T02:27:56.555Z,1005.846
2023-04-28T02:28:26.602Z,1005.859
2023-04-28T02:28:56.554Z,1005.86
2023-04-28T02:29:26.561Z,1005.859
2023-04-28T02:29:56.562Z,1005.867
2023-04-28T02:30:26.559Z,1005.879
2023-04-28T02:30:56.557Z,1005.878
2023-04-28T02:31:26.582Z,1005.886
2023-04-28T02:31:56.663Z,1005.898
2023-04-28T02:32:26.615Z,1005.897
2023-04-28T02:32:56.605Z,1005.902
2023-04-28T02:33:26.594Z,1005.899
2023-04-28T02:33:56.557Z,1005.897
2023-04-28T02:34:26.566Z,1005.881
2023-04-28T02:34:56.562Z,1005.88
2023-04-28T02:35:26.563Z,1005.882
2023-04-28T02:35:56.559Z,1005.874
2023-04-28T02:36:26.560Z,1005.862
2023-04-28T02:36:56.556Z,1005.854
2023-04-28T02:37:26.561Z,1005.845
2023-04-28T02:37:56.569Z,1005.842
2023-04-28T02:38:26.564Z,1005.851
2023-04-28T02:38:56.561Z,1005.855
2023-04-28T02:39:26.562Z,1005.853
2023-04-28T02:39:56.557Z,1005.858
2023-04-28T02:40:26.570Z,1005.86
2023-04-28T02:40:56.584Z,1005.858
2023-04-28T02:41:26.562Z,1005.859
2023-04-28T02:41:56.566Z,1005.861
2023-04-28T02:42:26.566Z,1005.867
2023-04-28T02:42:56.578Z,1005.864
2023-04-28T02:43:26.571Z,1005.861
2023-04-28T02:43:56.562Z,1005.871
2023-04-28T02:44:26.559Z,1005.871
2023-04-28T02:44:56.561Z,1005.867
2023-04-28T02:45:26.560Z,1005.869
2023-04-28T02:45:56.564Z,1005.861
2023-04-28T02:46:26.596Z,1005.867
2023-04-28T02:46:56.674Z,1005.858
2023-04-28T02:47:26.671Z,1005.856
2023-04-28T02:47:56.649Z,1005.855
2023-04-28T02:48:26.615Z,1005.848
2023-04-28T02:48:56.564Z,1005.847
2023-04-28T02:49:26.562Z,1005.855
2023-04-28T02:49:56.559Z,1005.859
2023-04-28T02:50:26.570Z,1005.864
2023-04-28T02:50:56.573Z,1005.869
2023-04-28T02:51:26.561Z,1005.875
2023-04-28T02:51:56.648Z,1005.878
2023-04-28T02:52:26.570Z,1005.88
2023-04-28T02:52:56.570Z,1005.888
2023-04-28T02:53:26.618Z,1005.898
2023-04-28T02:53:56.568Z,1005.905
2023-04-28T02:54:26.565Z,1005.893
2023-04-28T02:54:56.580Z,1005.886
2023-04-28T02:55:26.575Z,1005.882
2023-04-28T02:55:56.566Z,1005.875
2023-04-28T02:56:26.568Z,1005.882
2023-04-28T02:56:56.563Z,1005.886
2023-04-28T02:57:26.566Z,1005.886
2023-04-28T02:57:56.564Z,1005.889
2023-04-28T02:58:26.582Z,1005.897
2023-04-28T02:58:56.568Z,1005.905
2023-04-28T02:59:26.569Z,1005.908
2023-04-28T02:59:56.563Z,1005.913
2023-04-28T03:00:26.572Z,1005.922
2023-04-28T03:00:56.580Z,1005.932
2023-04-28T03:01:26.618Z,1005.935
2023-04-28T03:01:56.570Z,1005.936
2023-04-28T03:02:26.644Z,1005.937
2023-04-28T03:02:56.652Z,1005.948
2023-04-28T03:03:26.698Z,1005.958
2023-04-28T03:03:56.797Z,1005.964
2023-04-28T03:04:26.746Z,1005.96
2023-04-28T03:04:56.747Z,1005.966
2023-04-28T03:05:26.570Z,1005.972
2023-04-28T03:05:56.567Z,1005.977
2023-04-28T03:06:26.577Z,1005.969
2023-04-28T03:06:56.725Z,1005.959
2023-04-28T03:07:26.574Z,1005.949
2023-04-28T03:07:56.578Z,1005.942
2023-04-28T03:08:26.573Z,1005.94
2023-04-28T03:08:56.567Z,1005.942
2023-04-28T03:09:26.572Z,1005.945
2023-04-28T03:09:56.567Z,1005.95
2023-04-28T03:10:26.580Z,1005.951
2023-04-28T03:10:56.610Z,1005.964
2023-04-28T03:11:26.598Z,1005.966
2023-04-28T03:11:56.576Z,1005.977
2023-04-28T03:12:26.569Z,1005.978
2023-04-28T03:12:56.595Z,1005.982
2023-04-28T03:13:26.590Z,1005.976
2023-04-28T03:13:56.571Z,1005.978
2023-04-28T03:14:26.569Z,1005.972
2023-04-28T03:14:56.589Z,1005.99
2023-04-28T03:15:26.578Z,1005.997
2023-04-28T03:15:56.623Z,1006.005
2023-04-28T03:16:26.612Z,1006.017
2023-04-28T03:16:56.577Z,1006.019
2023-04-28T03:17:26.584Z,1006.018
2023-04-28T03:17:56.603Z,1006.012
2023-04-28T03:18:26.584Z,1006.018
2023-04-28T03:18:56.570Z,1006.011
2023-04-28T03:19:26.630Z,1006.017
2023-04-28T03:19:56.576Z,1006.015
2023-04-28T03:20:26.570Z,1006.018
2023-04-28T03:20:56.587Z,1006.026
2023-04-28T03:21:26.589Z,1006.031
2023-04-28T03:21:56.576Z,1006.039
2023-04-28T03:22:26.585Z,1006.044
2023-04-28T03:22:56.592Z,1006.056
2023-04-28T03:23:26.589Z,1006.055
2023-04-28T03:23:56.573Z,1006.062
2023-04-28T03:24:26.577Z,1006.075
2023-04-28T03:24:56.579Z,1006.094
2023-04-28T03:25:26.578Z,1006.104
2023-04-28T03:25:56.581Z,1006.106
2023-04-28T03:26:26.580Z,1006.11
2023-04-28T03:26:56.571Z,1006.111
2023-04-28T03:27:26.579Z,1006.121
2023-04-28T03:27:56.591Z,1006.126
2023-04-28T03:28:26.580Z,1006.117
2023-04-28T03:28:56.579Z,1006.123
2023-04-28T03:29:26.594Z,1006.128
2023-04-28T03:29:56.573Z,1006.135
2023-04-28T03:30:26.587Z,1006.135
2023-04-28T03:30:56.579Z,1006.147
2023-04-28T03:31:26.607Z,1006.155
2023-04-28T03:31:56.723Z,1006.15
2023-04-28T03:32:26.590Z,1006.14
2023-04-28T03:32:56.610Z,1006.127
2023-04-28T03:33:26.586Z,1006.133
2023-04-28T03:33:56.592Z,1006.142
2023-04-28T03:34:26.576Z,1006.136
2023-04-28T03:34:56.593Z,1006.144
2023-04-28T03:35:26.579Z,1006.149
2023-04-28T03:35:56.599Z,1006.154
2023-04-28T03:36:26.580Z,1006.143
2023-04-28T03:36:56.580Z,1006.134
2023-04-28T03:37:26.593Z,1006.132
2023-04-28T03:37:56.587Z,1006.135
2023-04-28T03:38:26.620Z,1006.134
2023-04-28T03:38:56.582Z,1006.138
2023-04-28T03:39:26.580Z,1006.137
2023-04-28T03:39:56.594Z,1006.131
2023-04-28T03:40:26.579Z,1006.134
2023-04-28T03:40:56.592Z,1006.14
2023-04-28T03:41:26.575Z,1006.144
2023-04-28T03:41:56.581Z,1006.14
2023-04-28T03:42:26.581Z,1006.138
2023-04-28T03:42:56.585Z,1006.141
2023-04-28T03:43:26.591Z,1006.142
2023-04-28T03:43:56.579Z,1006.144
2023-04-28T03:44:26.578Z,1006.15
2023-04-28T03:44:56.595Z,1006.148
2023-04-28T03:45:26.585Z,1006.141
2023-04-28T03:45:56.626Z,1006.125
2023-04-28T03:46:26.612Z,1006.112
2023-04-28T03:46:56.582Z,1006.088
2023-04-28T03:47:26.577Z,1006.068
2023-04-28T03:47:56.636Z,1006.05
2023-04-28T03:48:26.608Z,1006.026
2023-04-28T03:48:56.623Z,1006.003
2023-04-28T03:49:26.588Z,1005.988
2023-04-28T03:49:56.578Z,1005.993
2023-04-28T03:50:26.905Z,1005.982
2023-04-28T03:50:56.576Z,1005.972
2023-04-28T03:51:26.586Z,1005.971
2023-04-28T03:51:56.581Z,1005.987
2023-04-28T03:52:26.582Z,1005.981
2023-04-28T03:52:56.585Z,1005.982
2023-04-28T03:53:26.595Z,1005.981
2023-04-28T03:53:56.580Z,1005.976
2023-04-28T03:54:26.608Z,1005.971
2023-04-28T03:54:56.590Z,1005.97
2023-04-28T03:55:26.590Z,1005.967
2023-04-28T03:55:56.585Z,1005.97
2023-04-28T03:56:26.582Z,1005.97
2023-04-28T03:56:56.581Z,1005.975
2023-04-28T03:57:26.582Z,1005.971
2023-04-28T03:57:56.603Z,1005.966
2023-04-28T03:58:26.620Z,1005.974
2023-04-28T03:58:56.588Z,1005.967
2023-04-28T03:59:26.591Z,1005.982
2023-04-28T03:59:56.589Z,1005.991
2023-04-28T04:00:26.588Z,1006.003
2023-04-28T04:00:56.584Z,1006.016
2023-04-28T04:01:26.603Z,1006.019
2023-04-28T04:01:56.583Z,1006.032
2023-04-28T04:02:26.669Z,1006.027
2023-04-28T04:02:56.702Z,1006.038
2023-04-28T04:03:26.889Z,1006.048
2023-04-28T04:03:57.004Z,1006.057
2023-04-28T04:04:27.181Z,1006.063
2023-04-28T04:04:57.043Z,1006.073
2023-04-28T04:05:26.647Z,1006.074
2023-04-28T04:05:56.601Z,1006.088
2023-04-28T04:06:26.588Z,1006.093
2023-04-28T04:06:56.586Z,1006.071
2023-04-28T04:07:26.592Z,1006.058
2023-04-28T04:07:56.596Z,1006.046
2023-04-28T04:08:26.602Z,1006.055
2023-04-28T04:08:56.586Z,1006.048
2023-04-28T04:09:26.595Z,1006.047
2023-04-28T04:09:56.591Z,1006.05
2023-04-28T04:10:26.589Z,1006.055
2023-04-28T04:10:56.602Z,1006.052
2023-04-28T04:11:26.605Z,1006.058
2023-04-28T04:11:56.595Z,1006.066
2023-04-28T04:12:26.587Z,1006.066
2023-04-28T04:12:56.587Z,1006.075
2023-04-28T04:13:26.614Z,1006.089
2023-04-28T04:13:56.607Z,1006.086
2023-04-28T04:14:26.591Z,1006.097
2023-04-28T04:14:56.589Z,1006.12
2023-04-28T04:15:26.592Z,1006.14
2023-04-28T04:15:56.612Z,1006.158
2023-04-28T04:16:26.736Z,1006.163
2023-04-28T04:16:56.591Z,1006.166
2023-04-28T04:17:26.627Z,1006.171
2023-04-28T04:17:56.641Z,1006.173
2023-04-28T04:18:26.589Z,1006.172
2023-04-28T04:18:56.587Z,1006.181
2023-04-28T04:19:26.686Z,1006.189
2023-04-28T04:19:56.591Z,1006.19
2023-04-28T04:20:26.608Z,1006.19
2023-04-28T04:20:56.591Z,1006.198
2023-04-28T04:21:26.595Z,1006.193
2023-04-28T04:21:56.627Z,1006.208
2023-04-28T04:22:26.599Z,1006.224
2023-04-28T04:22:56.604Z,1006.238
2023-04-28T04:23:26.599Z,1006.26
2023-04-28T04:23:56.606Z,1006.283
2023-04-28T04:24:26.601Z,1006.308
2023-04-28T04:24:56.597Z,1006.335
2023-04-28T04:25:26.592Z,1006.351
2023-04-28T04:25:56.596Z,1006.378
2023-04-28T04:26:26.593Z,1006.399
2023-04-28T04:26:56.599Z,1006.409
2023-04-28T04:27:26.594Z,1006.38
2023-04-28T04:27:56.592Z,1006.349
2023-04-28T04:28:26.626Z,1006.327
2023-04-28T04:28:56.602Z,1006.306
2023-04-28T04:29:26.597Z,1006.288
2023-04-28T04:29:56.593Z,1006.279
2023-04-28T04:30:26.604Z,1006.272
2023-04-28T04:30:56.616Z,1006.271
2023-04-28T04:31:26.621Z,1006.254
2023-04-28T04:31:56.594Z,1006.264
2023-04-28T04:32:26.632Z,1006.267
2023-04-28T04:32:56.641Z,1006.266
2023-04-28T04:33:26.614Z,1006.27
2023-04-28T04:33:56.608Z,1006.277
2023-04-28T04:34:26.598Z,1006.281
2023-04-28T04:34:56.599Z,1006.288
2023-04-28T04:35:26.601Z,1006.296
2023-04-28T04:35:56.601Z,1006.311
2023-04-28T04:36:26.622Z,1006.314
2023-04-28T04:36:56.609Z,1006.321
2023-04-28T04:37:26.603Z,1006.335
2023-04-28T04:37:56.600Z,1006.339
2023-04-28T04:38:26.600Z,1006.353
2023-04-28T04:38:56.601Z,1006.36
2023-04-28T04:39:26.599Z,1006.366
2023-04-28T04:39:56.604Z,1006.375
2023-04-28T04:40:26.601Z,1006.387
2023-04-28T04:40:56.600Z,1006.402
2023-04-28T04:41:26.600Z,1006.411
2023-04-28T04:41:56.600Z,1006.418
2023-04-28T04:42:26.612Z,1006.432
2023-04-28T04:42:56.601Z,1006.445
2023-04-28T04:43:26.602Z,1006.458
2023-04-28T04:43:56.598Z,1006.469
2023-04-28T04:44:26.669Z,1006.485
2023-04-28T04:44:56.597Z,1006.491
2023-04-28T04:45:26.597Z,1006.507
2023-04-28T04:45:56.614Z,1006.523
2023-04-28T04:46:26.618Z,1006.56
2023-04-28T04:46:56.627Z,1006.579
2023-04-28T04:47:26.628Z,1006.595
2023-04-28T04:47:56.622Z,1006.583
2023-04-28T04:48:26.603Z,1006.57
2023-04-28T04:48:56.603Z,1006.542
2023-04-28T04:49:26.643Z,1006.517
2023-04-28T04:49:56.605Z,1006.511
2023-04-28T04:50:26.603Z,1006.5
2023-04-28T04:50:56.611Z,1006.479
2023-04-28T04:51:26.600Z,1006.461
2023-04-28T04:51:56.601Z,1006.464
2023-04-28T04:52:26.605Z,1006.475
2023-04-28T04:52:56.620Z,1006.482
2023-04-28T04:53:26.650Z,1006.486
2023-04-28T04:53:56.616Z,1006.515
2023-04-28T04:54:26.605Z,1006.544
2023-04-28T04:54:56.613Z,1006.58
2023-04-28T04:55:26.624Z,1006.602
2023-04-28T04:55:56.604Z,1006.625
2023-04-28T04:56:26.617Z,1006.642
2023-04-28T04:56:56.609Z,1006.658
2023-04-28T04:57:26.604Z,1006.668
2023-04-28T04:57:56.606Z,1006.686
2023-04-28T04:58:26.652Z,1006.692
2023-04-28T04:58:56.606Z,1006.701
2023-04-28T04:59:26.627Z,1006.695
2023-04-28T04:59:56.642Z,1006.689
2023-04-28T05:00:26.612Z,1006.698
2023-04-28T05:00:56.606Z,1006.698
2023-04-28T05:01:26.669Z,1006.7
2023-04-28T05:01:56.666Z,1006.693
2023-04-28T05:02:26.624Z,1006.679
2023-04-28T05:02:56.737Z,1006.686
2023-04-28T05:03:26.809Z,1006.685
2023-04-28T05:03:56.754Z,1006.664
2023-04-28T05:04:26.705Z,1006.653
2023-04-28T05:05:08.004Z,1006.643
2023-04-28T05:05:27.669Z,1006.636
2023-04-28T05:05:56.626Z,1006.634
2023-04-28T05:06:26.613Z,1006.62
2023-04-28T05:06:56.610Z,1006.624
2023-04-28T05:07:26.627Z,1006.627
2023-04-28T05:07:56.610Z,1006.617
2023-04-28T05:08:26.614Z,1006.607
2023-04-28T05:08:56.645Z,1006.595
2023-04-28T05:09:26.610Z,1006.589
2023-04-28T05:09:56.617Z,1006.582
2023-04-28T05:10:26.615Z,1006.576
2023-04-28T05:10:56.617Z,1006.575
2023-04-28T05:11:26.638Z,1006.571
2023-04-28T05:11:56.624Z,1006.56
2023-04-28T05:12:26.613Z,1006.568
2023-04-28T05:12:56.625Z,1006.569
2023-04-28T05:13:26.623Z,1006.561
2023-04-28T05:13:56.617Z,1006.552
2023-04-28T05:14:26.619Z,1006.556
2023-04-28T05:14:56.616Z,1006.57
2023-04-28T05:15:26.616Z,1006.589
2023-04-28T05:15:56.614Z,1006.587
2023-04-28T05:16:26.680Z,1006.603
2023-04-28T05:16:56.624Z,1006.624
2023-04-28T05:17:26.616Z,1006.646
2023-04-28T05:17:56.654Z,1006.662
2023-04-28T05:18:26.619Z,1006.663
2023-04-28T05:18:56.618Z,1006.66
2023-04-28T05:19:26.622Z,1006.665
2023-04-28T05:19:56.614Z,1006.661
2023-04-28T05:20:26.628Z,1006.661
2023-04-28T05:20:56.621Z,1006.65
2023-04-28T05:21:26.631Z,1006.636
2023-04-28T05:21:56.632Z,1006.63
2023-04-28T05:22:26.616Z,1006.633
2023-04-28T05:22:56.618Z,1006.639
2023-04-28T05:23:26.627Z,1006.63
2023-04-28T05:23:56.636Z,1006.628
2023-04-28T05:24:26.628Z,1006.637
2023-04-28T05:24:56.621Z,1006.633
2023-04-28T05:25:26.625Z,1006.611
2023-04-28T05:25:56.625Z,1006.608
2023-04-28T05:26:26.620Z,1006.595
2023-04-28T05:26:56.619Z,1006.582
2023-04-28T05:27:26.621Z,1006.579
2023-04-28T05:27:56.622Z,1006.574
2023-04-28T05:28:26.654Z,1006.57
2023-04-28T05:28:56.623Z,1006.559
2023-04-28T05:29:26.626Z,1006.57
2023-04-28T05:29:56.622Z,1006.593
2023-04-28T05:30:26.637Z,1006.587
2023-04-28T05:30:56.624Z,1006.59
2023-04-28T05:31:26.659Z,1006.583
2023-04-28T05:31:56.699Z,1006.568
2023-04-28T05:32:26.650Z,1006.565
2023-04-28T05:32:56.641Z,1006.542
2023-04-28T05:33:26.624Z,1006.536
2023-04-28T05:33:56.625Z,1006.524
2023-04-28T05:34:26.628Z,1006.506
2023-04-28T05:34:56.628Z,1006.513
2023-04-28T05:35:26.635Z,1006.503
2023-04-28T05:35:56.625Z,1006.512
2023-04-28T05:36:26.633Z,1006.52
2023-04-28T05:36:56.625Z,1006.509
2023-04-28T05:37:26.631Z,1006.501
2023-04-28T05:37:56.625Z,1006.501
2023-04-28T05:38:26.638Z,1006.495
2023-04-28T05:38:56.634Z,1006.492
2023-04-28T05:39:26.630Z,1006.508
2023-04-28T05:39:56.639Z,1006.515
2023-04-28T05:40:26.646Z,1006.514
2023-04-28T05:40:56.630Z,1006.523
2023-04-28T05:41:26.630Z,1006.524
2023-04-28T05:41:56.629Z,1006.528
2023-04-28T05:42:26.626Z,1006.517
2023-04-28T05:42:56.626Z,1006.522
2023-04-28T05:43:26.630Z,1006.521
2023-04-28T05:43:56.624Z,1006.516
2023-04-28T05:44:26.633Z,1006.509
2023-04-28T05:44:56.624Z,1006.499
2023-04-28T05:45:26.629Z,1006.5
2023-04-28T05:45:56.661Z,1006.507
2023-04-28T05:46:31.031Z,1006.508
2023-04-28T05:46:57.660Z,1006.506
2023-04-28T05:47:26.719Z,1006.516
2023-04-28T05:47:56.698Z,1006.526
2023-04-28T05:48:26.632Z,1006.529
2023-04-28T05:48:56.636Z,1006.532
2023-04-28T05:49:26.628Z,1006.538
2023-04-28T05:49:56.627Z,1006.54
2023-04-28T05:50:26.628Z,1006.543
2023-04-28T05:50:56.629Z,1006.557
2023-04-28T05:51:26.632Z,1006.565
2023-04-28T05:51:56.631Z,1006.56
2023-04-28T05:52:26.636Z,1006.567
2023-04-28T05:52:56.630Z,1006.573
2023-04-28T05:53:26.635Z,1006.575